createdAt,value
2017-09-04T00:00:57.137Z,8.43
2017-09-04T00:03:24.031Z,6.53
2017-09-04T00:05:50.883Z,6.90
2017-09-04T00:08:17.813Z,6.80
2017-09-04T00:10:44.626Z,6.80
2017-09-04T00:13:11.524Z,6.60
2017-09-04T00:15:38.397Z,6.23
2017-09-04T00:18:05.273Z,6.30
2017-09-04T00:20:32.205Z,7.60
2017-09-04T00:22:59.022Z,6.17
2017-09-04T00:25:25.904Z,6.00
2017-09-04T00:27:53.451Z,6.40
2017-09-04T00:30:20.317Z,6.40
2017-09-04T00:32:47.134Z,6.30
2017-09-04T00:35:14.039Z,6.00
2017-09-04T00:37:40.898Z,5.80
2017-09-04T00:40:07.727Z,7.10
2017-09-04T00:42:34.622Z,5.83
2017-09-04T00:45:01.489Z,5.93
2017-09-04T00:47:28.335Z,5.40
2017-09-04T00:49:55.198Z,5.30
2017-09-04T00:52:22.083Z,4.97
2017-09-04T00:54:48.894Z,4.83
2017-09-04T00:57:15.820Z,10.43
2017-09-04T00:59:42.648Z,5.90
2017-09-04T01:02:09.544Z,4.67
2017-09-04T01:04:36.473Z,4.80
2017-09-04T01:07:03.323Z,4.40
2017-09-04T01:09:30.224Z,4.30
2017-09-04T01:11:57.122Z,5.93
2017-09-04T01:14:24.017Z,4.73
2017-09-04T01:16:50.926Z,4.60
2017-09-04T01:19:17.871Z,4.30
2017-09-04T01:21:44.804Z,4.70
2017-09-04T01:24:11.685Z,4.53
2017-09-04T01:26:38.577Z,4.47
2017-09-04T01:29:05.439Z,4.77
2017-09-04T01:31:32.290Z,4.90
2017-09-04T01:33:59.168Z,4.33
2017-09-04T01:36:25.987Z,4.00
2017-09-04T01:38:52.911Z,4.60
2017-09-04T01:41:19.861Z,5.23
2017-09-04T01:43:46.723Z,4.03
2017-09-04T01:46:13.584Z,4.10
2017-09-04T01:48:41.024Z,3.87
2017-09-04T01:51:08.038Z,4.00
2017-09-04T01:53:36.436Z,3.97
2017-09-04T01:56:03.348Z,4.40
2017-09-04T01:58:30.187Z,3.47
2017-09-04T02:00:57.006Z,3.70
2017-09-04T02:03:23.859Z,4.13
2017-09-04T02:05:50.683Z,4.00
2017-09-04T02:08:17.498Z,4.10
2017-09-04T02:10:44.354Z,4.13
2017-09-04T02:13:11.222Z,3.60
2017-09-04T02:15:39.989Z,4.20
2017-09-04T02:18:07.122Z,4.17
2017-09-04T02:20:34.022Z,3.93
2017-09-04T02:23:00.881Z,3.87
2017-09-04T02:25:27.799Z,3.80
2017-09-04T02:27:54.657Z,3.83
2017-09-04T02:30:21.501Z,4.30
2017-09-04T02:32:48.408Z,3.80
2017-09-04T02:35:15.257Z,4.20
2017-09-04T02:37:42.069Z,3.83
2017-09-04T02:40:08.938Z,4.37
2017-09-04T02:42:35.755Z,3.70
2017-09-04T02:45:02.579Z,4.07
2017-09-04T02:47:29.526Z,3.90
2017-09-04T02:49:56.404Z,3.80
2017-09-04T02:52:23.244Z,4.23
2017-09-04T02:54:50.347Z,4.20
2017-09-04T02:59:50.636Z,4.13
2017-09-04T03:02:17.448Z,4.53
2017-09-04T03:04:44.309Z,4.23
2017-09-04T03:07:11.156Z,4.30
2017-09-04T03:09:38.010Z,3.90
2017-09-04T03:12:04.853Z,4.00
2017-09-04T03:14:31.700Z,4.20
2017-09-04T03:16:58.510Z,3.90
2017-09-04T03:19:25.408Z,4.17
2017-09-04T03:21:52.288Z,4.03
2017-09-04T03:24:19.176Z,3.80
2017-09-04T03:26:46.062Z,4.33
2017-09-04T03:29:12.958Z,4.60
2017-09-04T03:31:39.811Z,4.70
2017-09-04T03:34:06.701Z,5.00
2017-09-04T03:36:33.628Z,4.63
2017-09-04T03:39:00.506Z,5.07
2017-09-04T03:41:27.323Z,5.20
2017-09-04T03:43:54.227Z,5.33
2017-09-04T03:46:21.090Z,5.33
2017-09-04T03:48:47.972Z,4.50
2017-09-04T03:51:14.892Z,5.10
2017-09-04T03:53:41.735Z,4.70
2017-09-04T03:56:08.587Z,5.00
2017-09-04T03:58:35.492Z,4.70
2017-09-04T04:01:02.364Z,5.10
2017-09-04T04:03:29.249Z,5.03
2017-09-04T04:05:56.103Z,5.27
2017-09-04T04:08:22.963Z,4.40
2017-09-04T04:10:49.838Z,6.67
2017-09-04T04:13:16.760Z,6.80
2017-09-04T04:15:43.595Z,5.23
2017-09-04T04:18:10.430Z,4.60
2017-09-04T04:20:37.307Z,4.60
2017-09-04T04:23:04.187Z,4.73
2017-09-04T04:25:31.038Z,4.27
2017-09-04T04:27:57.911Z,3.97
2017-09-04T04:30:24.750Z,3.80
2017-09-04T04:32:51.622Z,3.97
2017-09-04T04:35:18.533Z,3.53
2017-09-04T04:37:45.371Z,3.70
2017-09-04T04:40:12.235Z,3.30
2017-09-04T04:42:39.142Z,3.80
2017-09-04T04:45:06.174Z,3.50
2017-09-04T04:47:33.804Z,3.63
2017-09-04T04:50:00.712Z,4.47
2017-09-04T04:52:27.579Z,3.93
2017-09-04T04:54:54.429Z,4.30
2017-09-04T04:57:21.338Z,3.50
2017-09-04T04:59:48.169Z,3.50
2017-09-04T05:02:15.056Z,3.50
2017-09-04T05:04:41.940Z,3.43
2017-09-04T05:07:08.825Z,3.10
2017-09-04T05:09:35.703Z,3.30
2017-09-04T05:12:02.538Z,3.97
2017-09-04T05:14:29.428Z,3.60
2017-09-04T05:16:56.288Z,4.53
2017-09-04T05:19:23.205Z,6.03
2017-09-04T05:21:50.051Z,6.07
2017-09-04T05:24:16.932Z,7.23
2017-09-04T05:26:43.784Z,4.47
2017-09-04T05:29:10.710Z,3.90
2017-09-04T05:31:37.550Z,3.67
2017-09-04T05:34:04.751Z,4.30
2017-09-04T05:36:31.563Z,3.23
2017-09-04T05:38:58.440Z,3.30
2017-09-04T05:41:25.305Z,3.07
2017-09-04T05:43:52.157Z,2.60
2017-09-04T05:46:19.028Z,3.30
2017-09-04T05:48:46.787Z,3.00
2017-09-04T05:51:13.725Z,3.10
2017-09-04T05:53:40.676Z,2.80
2017-09-04T05:56:07.542Z,3.10
2017-09-04T05:58:34.409Z,3.33
2017-09-04T06:01:01.292Z,5.77
2017-09-04T06:03:28.142Z,5.07
2017-09-04T06:05:55.016Z,3.00
2017-09-04T06:08:21.896Z,3.10
2017-09-04T06:10:48.756Z,3.10
2017-09-04T06:13:15.721Z,3.20
2017-09-04T06:15:42.577Z,3.10
2017-09-04T06:18:09.451Z,3.10
2017-09-04T06:20:36.267Z,3.17
2017-09-04T06:23:03.079Z,3.60
2017-09-04T06:25:30.031Z,3.20
2017-09-04T06:27:56.892Z,2.80
2017-09-04T06:30:23.767Z,2.80
2017-09-04T06:32:50.623Z,3.50
2017-09-04T06:35:17.436Z,3.27
2017-09-04T06:37:44.298Z,3.47
2017-09-04T06:40:11.231Z,3.10
2017-09-04T06:42:38.075Z,3.20
2017-09-04T06:45:04.892Z,3.63
2017-09-04T06:47:31.726Z,3.33
2017-09-04T06:49:58.579Z,3.50
2017-09-04T06:52:25.434Z,3.67
2017-09-04T06:54:52.280Z,3.67
2017-09-04T06:57:19.180Z,3.90
2017-09-04T06:59:46.000Z,3.17
2017-09-04T07:02:12.885Z,3.30
2017-09-04T07:04:39.708Z,3.53
2017-09-04T07:07:06.604Z,3.40
2017-09-04T07:09:33.495Z,3.30
2017-09-04T07:12:00.399Z,3.30
2017-09-04T07:14:27.277Z,3.73
2017-09-04T07:16:54.225Z,3.90
2017-09-04T07:19:21.151Z,3.93
2017-09-04T07:21:48.014Z,4.40
2017-09-04T07:24:14.943Z,3.83
2017-09-04T07:26:41.792Z,4.23
2017-09-04T07:29:08.705Z,4.13
2017-09-04T07:31:35.796Z,5.10
2017-09-04T07:34:02.627Z,4.57
2017-09-04T07:36:29.494Z,3.87
2017-09-04T07:38:56.528Z,6.00
2017-09-04T07:41:23.403Z,3.10
2017-09-04T07:43:50.252Z,3.10
2017-09-04T07:46:17.138Z,3.23
2017-09-04T07:48:44.002Z,3.80
2017-09-04T07:51:10.824Z,3.10
2017-09-04T07:53:37.704Z,3.07
2017-09-04T07:56:04.573Z,3.40
2017-09-04T07:58:31.424Z,3.60
2017-09-04T08:00:59.002Z,3.20
2017-09-04T08:03:25.883Z,3.03
2017-09-04T08:05:52.788Z,3.50
2017-09-04T08:08:19.646Z,3.50
2017-09-04T08:10:47.341Z,3.63
2017-09-04T08:13:14.155Z,3.10
2017-09-04T08:15:41.007Z,3.50
2017-09-04T08:18:07.827Z,2.70
2017-09-04T08:20:34.675Z,2.57
2017-09-04T08:23:01.578Z,2.50
2017-09-04T08:25:28.462Z,2.90
2017-09-04T08:27:55.424Z,3.10
2017-09-04T08:30:22.326Z,2.60
2017-09-04T08:32:49.216Z,2.37
2017-09-04T08:35:16.086Z,2.23
2017-09-04T08:37:42.940Z,2.77
2017-09-04T08:40:09.760Z,2.43
2017-09-04T08:42:36.567Z,2.13
2017-09-04T08:45:03.481Z,2.20
2017-09-04T08:47:30.357Z,2.73
2017-09-04T08:49:57.245Z,2.03
2017-09-04T08:52:24.159Z,2.13
2017-09-04T08:54:50.984Z,2.00
2017-09-04T08:57:17.845Z,2.60
2017-09-04T08:59:44.741Z,2.83
2017-09-04T09:02:11.588Z,2.83
2017-09-04T09:04:38.434Z,3.90
2017-09-04T09:07:06.039Z,2.57
2017-09-04T09:09:32.849Z,2.30
2017-09-04T09:11:59.658Z,2.23
2017-09-04T09:14:26.604Z,2.47
2017-09-04T09:16:53.440Z,2.50
2017-09-04T09:19:20.309Z,2.50
2017-09-04T09:21:47.225Z,2.10
2017-09-04T09:24:14.081Z,2.30
2017-09-04T09:26:40.938Z,2.57
2017-09-04T09:29:07.857Z,3.00
2017-09-04T09:31:34.741Z,2.93
2017-09-04T09:34:01.636Z,3.53
2017-09-04T09:36:28.529Z,2.73
2017-09-04T09:38:55.396Z,2.60
2017-09-04T09:41:22.272Z,2.53
2017-09-04T09:43:49.170Z,2.80
2017-09-04T09:46:16.032Z,2.17
2017-09-04T09:48:42.942Z,2.43
2017-09-04T09:51:09.820Z,2.50
2017-09-04T09:53:36.693Z,2.63
2017-09-04T09:56:03.539Z,2.40
2017-09-04T09:58:30.453Z,2.70
2017-09-04T10:00:57.328Z,2.83
2017-09-04T10:03:24.224Z,2.10
2017-09-04T10:05:51.096Z,2.50
2017-09-04T10:08:17.987Z,2.60
2017-09-04T10:10:44.828Z,2.70
2017-09-04T10:13:11.723Z,2.37
2017-09-04T10:15:38.604Z,2.80
2017-09-04T10:18:05.471Z,2.50
2017-09-04T10:20:32.370Z,4.47
2017-09-04T10:22:59.244Z,2.47
2017-09-04T10:25:26.115Z,2.93
2017-09-04T10:27:53.036Z,2.70
2017-09-04T10:30:19.899Z,2.40
2017-09-04T10:32:46.759Z,2.80
2017-09-04T10:35:13.673Z,4.20
2017-09-04T10:37:41.199Z,2.93
2017-09-04T10:40:08.089Z,3.00
2017-09-04T10:42:34.978Z,4.90
2017-09-04T10:45:01.847Z,2.30
2017-09-04T10:47:28.683Z,2.77
2017-09-04T10:49:55.605Z,2.93
2017-09-04T10:52:22.488Z,2.97
2017-09-04T10:54:49.361Z,3.20
2017-09-04T10:57:16.252Z,2.83
2017-09-04T10:59:44.000Z,3.20
2017-09-04T11:02:10.863Z,3.00
2017-09-04T11:04:37.773Z,3.20
2017-09-04T11:07:04.629Z,3.40
2017-09-04T11:09:31.515Z,3.10
2017-09-04T11:11:58.399Z,3.13
2017-09-04T11:14:25.286Z,3.03
2017-09-04T11:16:52.901Z,3.40
2017-09-04T11:19:19.787Z,3.40
2017-09-04T11:21:46.651Z,3.50
2017-09-04T11:24:13.540Z,3.00
2017-09-04T11:26:40.433Z,3.33
2017-09-04T11:29:07.261Z,2.90
2017-09-04T11:31:34.079Z,3.10
2017-09-04T11:34:00.976Z,3.00
2017-09-04T11:36:27.819Z,2.80
2017-09-04T11:38:54.700Z,3.20
2017-09-04T11:41:21.602Z,3.20
2017-09-04T11:43:48.431Z,2.97
2017-09-04T11:46:15.248Z,2.67
2017-09-04T11:48:42.219Z,3.03
2017-09-04T11:53:50.800Z,2.70
2017-09-04T11:56:24.230Z,4.80
2017-09-04T11:58:51.831Z,3.27
2017-09-04T12:01:19.421Z,3.10
2017-09-04T12:03:46.990Z,3.00
2017-09-04T12:06:14.571Z,3.00
2017-09-04T12:08:42.135Z,3.33
2017-09-04T12:11:09.677Z,3.30
2017-09-04T12:13:37.237Z,3.77
2017-09-04T12:16:04.755Z,3.27
2017-09-04T12:18:32.345Z,3.43
2017-09-04T12:20:59.961Z,3.13
2017-09-04T12:23:27.538Z,3.10
2017-09-04T12:25:55.127Z,3.93
2017-09-04T12:28:22.765Z,2.90
2017-09-04T12:30:50.316Z,2.83
2017-09-04T12:33:17.913Z,3.03
2017-09-04T12:35:45.550Z,3.17
2017-09-04T12:38:13.138Z,2.93
2017-09-04T12:40:40.808Z,2.70
2017-09-04T12:43:08.466Z,2.93
2017-09-04T12:45:35.996Z,2.30
2017-09-04T12:48:03.565Z,2.93
2017-09-04T12:50:31.140Z,3.17
2017-09-04T12:52:58.738Z,3.03
2017-09-04T12:55:26.302Z,2.50
2017-09-04T12:57:53.917Z,2.50
2017-09-04T13:00:21.483Z,2.90
2017-09-04T13:02:49.026Z,4.27
2017-09-04T13:05:16.596Z,2.63
2017-09-04T13:07:44.197Z,2.63
2017-09-04T13:10:29.525Z,3.27
2017-09-04T13:12:58.564Z,3.10
2017-09-04T13:15:31.528Z,5.53
2017-09-04T13:18:19.677Z,2.67
2017-09-04T13:20:53.053Z,3.00
2017-09-04T13:23:21.394Z,2.40
2017-09-04T13:26:00.295Z,2.40
2017-09-04T13:28:33.492Z,3.37
2017-09-04T13:31:06.547Z,2.67
2017-09-04T13:33:39.885Z,2.57
2017-09-04T13:36:12.872Z,2.80
2017-09-04T13:38:46.014Z,2.30
2017-09-04T13:41:32.284Z,2.03
2017-09-04T13:44:16.534Z,2.40
2017-09-04T13:47:01.940Z,2.30
2017-09-04T13:49:44.418Z,2.43
2017-09-04T13:52:17.529Z,2.43
2017-09-04T13:54:50.727Z,2.00
2017-09-04T13:57:24.097Z,2.33
2017-09-04T14:00:10.257Z,2.60
2017-09-04T14:02:56.600Z,3.40
2017-09-04T14:05:39.053Z,2.13
2017-09-04T14:08:24.455Z,1.80
2017-09-04T14:10:57.704Z,3.03
2017-09-04T14:13:41.013Z,2.50
2017-09-04T14:16:26.435Z,2.37
2017-09-04T14:18:54.898Z,2.50
2017-09-04T14:21:22.505Z,2.10
2017-09-04T14:23:50.105Z,2.03
2017-09-04T14:26:17.665Z,2.33
2017-09-04T14:28:45.194Z,2.30
2017-09-04T14:31:12.778Z,2.27
2017-09-04T14:33:40.364Z,2.70
2017-09-04T14:36:07.936Z,2.47
2017-09-04T14:38:35.758Z,2.50
2017-09-04T14:41:05.008Z,2.40
2017-09-04T14:43:49.275Z,2.03
2017-09-04T14:46:34.560Z,2.23
2017-09-04T14:49:02.181Z,2.37
2017-09-04T14:51:29.881Z,2.77
2017-09-04T14:53:57.606Z,2.50
2017-09-04T14:56:25.208Z,2.67
2017-09-04T14:58:52.806Z,2.53
2017-09-04T15:01:20.527Z,3.20
2017-09-04T15:03:48.075Z,2.83
2017-09-04T15:06:15.644Z,2.50
2017-09-04T15:08:43.261Z,2.33
2017-09-04T15:11:10.868Z,2.40
2017-09-04T15:13:38.435Z,3.53
2017-09-04T15:16:06.076Z,2.43
2017-09-04T15:18:33.648Z,2.17
2017-09-04T15:21:01.253Z,2.50
2017-09-04T15:23:28.920Z,3.33
2017-09-04T15:25:56.541Z,2.50
2017-09-04T15:28:25.590Z,2.60
2017-09-04T15:30:53.258Z,3.10
2017-09-04T15:33:20.939Z,2.53
2017-09-04T15:35:48.621Z,3.30
2017-09-04T15:38:16.250Z,3.07
2017-09-04T15:40:43.865Z,3.20
2017-09-04T15:43:11.472Z,2.97
2017-09-04T15:45:39.119Z,2.30
2017-09-04T15:48:06.687Z,2.47
2017-09-04T15:50:34.452Z,2.60
2017-09-04T15:53:02.122Z,2.53
2017-09-04T15:55:29.725Z,2.80
2017-09-04T15:57:57.342Z,3.13
2017-09-04T16:00:24.980Z,2.77
2017-09-04T16:02:52.528Z,2.40
2017-09-04T16:05:20.434Z,3.50
2017-09-04T16:07:51.445Z,2.30
2017-09-04T16:10:19.031Z,2.50
2017-09-04T16:12:49.976Z,2.87
2017-09-04T16:15:23.158Z,2.80
2017-09-04T16:17:54.230Z,2.93
2017-09-04T16:20:32.544Z,2.30
2017-09-04T16:23:00.089Z,3.07
2017-09-04T16:25:29.271Z,3.87
2017-09-04T16:28:00.277Z,3.27
2017-09-04T16:30:46.697Z,3.90
2017-09-04T16:33:19.797Z,2.60
2017-09-04T16:35:49.920Z,2.70
2017-09-04T16:38:17.525Z,3.73
2017-09-04T16:40:45.129Z,3.70
2017-09-04T16:43:18.246Z,3.10
2017-09-04T16:46:00.753Z,4.70
2017-09-04T16:48:33.828Z,3.50
2017-09-04T16:51:07.943Z,3.23
2017-09-04T16:53:36.194Z,3.77
2017-09-04T16:56:10.411Z,3.50
2017-09-04T16:58:38.017Z,4.73
2017-09-04T17:01:05.768Z,3.23
2017-09-04T17:03:33.514Z,3.37
2017-09-04T17:06:01.110Z,3.20
2017-09-04T17:08:44.506Z,3.73
2017-09-04T17:11:30.808Z,3.03
2017-09-04T17:13:58.400Z,2.90
2017-09-04T17:16:25.924Z,3.50
2017-09-04T17:18:53.940Z,4.93
2017-09-04T17:21:34.215Z,5.30
2017-09-04T17:24:01.802Z,5.93
2017-09-04T17:26:29.409Z,3.70
2017-09-04T17:28:57.042Z,4.23
2017-09-04T17:31:24.600Z,4.70
2017-09-04T17:33:52.201Z,5.93
2017-09-04T17:36:19.810Z,6.47
2017-09-04T17:38:47.393Z,6.50
2017-09-04T17:41:14.969Z,4.43
2017-09-04T17:43:42.590Z,4.60
2017-09-04T17:46:10.137Z,4.00
2017-09-04T17:48:37.696Z,4.13
2017-09-04T17:51:05.378Z,9.67
2017-09-04T17:53:32.934Z,4.33
2017-09-04T17:56:00.527Z,7.97
2017-09-04T17:58:28.144Z,6.90
2017-09-04T18:00:55.720Z,8.63
2017-09-04T18:03:23.252Z,5.70
2017-09-04T18:05:50.879Z,5.77
2017-09-04T18:08:18.443Z,4.07
2017-09-04T18:10:46.049Z,5.43
2017-09-04T18:13:13.669Z,6.07
2017-09-04T18:15:41.267Z,6.53
2017-09-04T18:18:08.807Z,9.50
2017-09-04T18:20:36.392Z,4.17
2017-09-04T18:23:03.965Z,4.70
2017-09-04T18:25:31.532Z,4.00
2017-09-04T18:27:59.121Z,3.87
2017-09-04T18:30:26.658Z,3.57
2017-09-04T18:32:54.258Z,4.30
2017-09-04T18:35:21.895Z,3.90
2017-09-04T18:37:49.473Z,3.50
2017-09-04T18:40:17.071Z,4.00
2017-09-04T18:42:44.659Z,2.83
2017-09-04T18:45:12.273Z,2.93
2017-09-04T18:47:39.860Z,5.70
2017-09-04T18:50:07.464Z,6.27
2017-09-04T18:52:35.067Z,4.30
2017-09-04T18:55:02.643Z,3.70
2017-09-04T18:57:31.044Z,4.20
2017-09-04T18:59:58.670Z,4.30
2017-09-04T19:05:03.861Z,4.53
2017-09-04T19:12:39.608Z,7.17
2017-09-04T19:15:07.264Z,6.10
2017-09-04T19:17:34.928Z,3.77
2017-09-04T19:20:02.453Z,5.83
2017-09-04T19:22:30.034Z,7.73
2017-09-04T19:24:57.599Z,4.80
2017-09-04T19:27:25.174Z,5.97
2017-09-04T19:29:52.827Z,3.90
2017-09-04T19:32:20.349Z,3.97
2017-09-04T19:34:47.939Z,3.33
2017-09-04T19:37:15.536Z,3.90
2017-09-04T19:39:43.097Z,4.20
2017-09-04T19:42:10.667Z,4.90
2017-09-04T19:44:38.464Z,6.00
2017-09-04T19:47:06.044Z,5.50
2017-09-04T19:49:33.628Z,5.87
2017-09-04T19:52:01.242Z,9.00
2017-09-04T19:54:28.807Z,9.00
2017-09-04T19:56:56.339Z,7.77
2017-09-04T19:59:23.954Z,5.77
2017-09-04T20:01:51.576Z,4.37
2017-09-04T20:04:19.162Z,4.43
2017-09-04T20:06:47.572Z,7.57
2017-09-04T20:09:15.164Z,6.80
2017-09-04T20:11:43.288Z,8.47
2017-09-04T20:14:11.453Z,8.53
2017-09-04T20:16:39.191Z,6.83
2017-09-04T20:19:06.719Z,4.73
2017-09-04T20:21:34.323Z,6.67
2017-09-04T20:24:01.924Z,4.63
2017-09-04T20:26:29.525Z,5.43
2017-09-04T20:28:57.157Z,5.00
2017-09-04T20:31:24.730Z,4.90
2017-09-04T20:33:52.252Z,5.90
2017-09-04T20:36:19.807Z,6.10
2017-09-04T20:38:47.336Z,5.33
2017-09-04T20:41:14.898Z,5.83
2017-09-04T20:43:42.521Z,6.07
2017-09-04T20:46:11.004Z,7.13
2017-09-04T20:48:37.862Z,4.93
2017-09-04T20:51:04.765Z,5.47
2017-09-04T20:53:31.617Z,5.20
2017-09-04T20:55:58.428Z,5.63
2017-09-04T20:58:25.340Z,9.60
2017-09-04T21:00:52.216Z,6.97
2017-09-04T21:03:19.086Z,6.37
2017-09-04T21:05:47.002Z,5.80
2017-09-04T21:08:13.831Z,5.90
2017-09-04T21:10:40.639Z,5.40
2017-09-04T21:13:07.515Z,5.00
2017-09-04T21:15:34.416Z,5.23
2017-09-04T21:18:01.281Z,4.83
2017-09-04T21:20:28.150Z,5.77
2017-09-04T21:22:55.024Z,4.80
2017-09-04T21:25:21.895Z,4.67
2017-09-04T21:27:49.631Z,5.30
2017-09-04T21:30:16.518Z,4.43
2017-09-04T21:32:43.405Z,5.27
2017-09-04T21:35:10.292Z,4.77
2017-09-04T21:37:37.180Z,4.90
2017-09-04T21:40:03.999Z,4.93
2017-09-04T21:42:30.903Z,4.23
2017-09-04T21:44:57.775Z,4.40
2017-09-04T21:47:24.633Z,4.30
2017-09-04T21:49:51.548Z,4.30
2017-09-04T21:52:18.433Z,5.50
2017-09-04T21:54:45.283Z,8.03
2017-09-04T21:57:12.138Z,4.27
2017-09-04T21:59:38.989Z,5.20
2017-09-04T22:02:05.875Z,5.87
2017-09-04T22:04:32.738Z,4.70
2017-09-04T22:06:59.628Z,4.50
2017-09-04T22:09:26.440Z,4.90
2017-09-04T22:11:53.335Z,4.60
2017-09-04T22:14:20.191Z,4.20
2017-09-04T22:16:47.072Z,3.87
2017-09-04T22:19:13.947Z,3.60
2017-09-04T22:21:40.804Z,4.00
2017-09-04T22:24:07.658Z,3.90
2017-09-04T22:26:34.593Z,4.00
2017-09-04T22:29:01.463Z,4.03
2017-09-04T22:31:28.281Z,3.80
2017-09-04T22:33:55.226Z,4.63
2017-09-04T22:36:22.120Z,4.03
2017-09-04T22:38:48.945Z,3.67
2017-09-04T22:41:15.803Z,5.33
2017-09-04T22:43:42.681Z,3.73
2017-09-04T22:46:09.537Z,4.33
2017-09-04T22:48:36.525Z,3.90
2017-09-04T22:51:03.384Z,3.90
2017-09-04T22:53:30.239Z,4.50
2017-09-04T22:55:57.096Z,4.33
2017-09-04T22:58:27.622Z,4.13
2017-09-04T23:00:54.468Z,4.53
2017-09-04T23:03:22.085Z,4.10
2017-09-04T23:05:48.903Z,3.87
2017-09-04T23:08:15.768Z,4.10
2017-09-04T23:10:42.639Z,4.30
2017-09-04T23:13:09.463Z,3.80
2017-09-04T23:15:36.329Z,3.70
2017-09-04T23:18:03.250Z,3.60
2017-09-04T23:20:30.120Z,4.30
2017-09-04T23:22:57.369Z,3.40
2017-09-04T23:25:24.279Z,3.83
2017-09-04T23:27:51.882Z,3.67
2017-09-04T23:30:18.729Z,3.73
2017-09-04T23:32:45.603Z,3.40
2017-09-04T23:35:12.481Z,3.33
2017-09-04T23:37:39.297Z,3.23
2017-09-04T23:40:06.212Z,3.97
2017-09-04T23:42:33.085Z,4.10
2017-09-04T23:44:59.957Z,3.47
2017-09-04T23:47:26.862Z,3.87
2017-09-04T23:49:53.744Z,4.00
2017-09-04T23:52:20.557Z,3.17
2017-09-04T23:54:47.459Z,4.00
2017-09-04T23:57:14.301Z,3.83
2017-09-04T23:59:41.142Z,3.83
